Time;durP1;ratioP1;P1;durP2;ratioP2;P2;SDS_P1;SDS_P2;PMS_P1;PMS_P2;Temp;Humidity;BMP_temperature;BMP_pressure;BME280_temperature;BME280_humidity;BME280_pressure;Samples;Min_cycle;Max_cycle;Signal;HPM_P1;HPM_P2
2021/11/23 00:01:22;;;;;;;76.13;13.13;;;10.50;91.80;;;;;;5066877;28;20037;-60
2021/11/23 00:03:48;;;;;;;85.70;14.35;;;10.40;91.70;;;;;;5071905;28;20473;-60
2021/11/23 00:06:13;;;;;;;215.30;21.55;;;10.50;91.70;;;;;;5047723;28;20555;-60
2021/11/23 00:08:40;;;;;;;146.90;20.00;;;10.40;91.60;;;;;;5030411;28;20395;-60
2021/11/23 00:11:05;;;;;;;142.18;17.67;;;10.40;91.40;;;;;;5061269;28;20078;-59
2021/11/23 00:13:31;;;;;;;142.57;20.27;;;10.40;91.40;;;;;;5067179;28;20024;-62
2021/11/23 00:15:56;;;;;;;223.98;23.40;;;10.40;91.40;;;;;;5062235;28;20044;-60
2021/11/23 00:18:22;;;;;;;139.60;19.88;;;10.30;91.60;;;;;;5052445;28;20028;-60
2021/11/23 00:20:47;;;;;;;209.38;23.08;;;10.30;91.70;;;;;;5061726;28;20091;-60
2021/11/23 00:23:13;;;;;;;130.23;17.45;;;10.30;91.70;;;;;;5068840;28;20081;-60
2021/11/23 00:25:39;;;;;;;182.00;20.80;;;10.30;91.60;;;;;;5041976;28;20124;-60
2021/11/23 00:28:04;;;;;;;162.90;19.60;;;10.30;91.60;;;;;;5031688;28;20381;-59
2021/11/23 00:30:30;;;;;;;129.43;18.40;;;10.30;91.50;;;;;;5065365;28;20028;-60
2021/11/23 00:32:55;;;;;;;112.70;17.92;;;10.30;91.50;;;;;;5026592;28;20506;-60
2021/11/23 00:35:21;;;;;;;109.18;17.15;;;10.30;91.40;;;;;;5065542;28;20112;-60
2021/11/23 00:37:47;;;;;;;115.22;19.30;;;10.30;91.30;;;;;;5068141;28;20020;-59
2021/11/23 00:40:14;;;;;;;112.78;15.23;;;10.30;91.30;;;;;;5048466;28;20510;-59
2021/11/23 00:42:39;;;;;;;94.53;15.65;;;10.30;91.50;;;;;;5064514;28;20146;-59
2021/11/23 00:45:06;;;;;;;99.32;16.00;;;10.20;91.40;;;;;;5043284;28;20456;-60
2021/11/23 00:47:32;;;;;;;138.13;17.83;;;10.20;91.30;;;;;;5031276;28;20479;-60
2021/11/23 00:49:58;;;;;;;114.82;15.10;;;10.20;91.40;;;;;;5050857;28;20107;-60
2021/11/23 00:52:24;;;;;;;100.28;16.17;;;10.20;91.40;;;;;;5047194;28;20031;-60
2021/11/23 00:54:50;;;;;;;113.82;15.70;;;10.20;91.40;;;;;;5043634;28;20116;-60
2021/11/23 00:57:15;;;;;;;95.20;14.73;;;10.20;91.40;;;;;;5028854;28;20104;-60
2021/11/23 00:59:41;;;;;;;122.15;16.15;;;10.20;91.40;;;;;;5067592;28;20035;-60
2021/11/23 01:02:06;;;;;;;131.32;17.80;;;10.10;91.40;;;;;;5062888;28;20024;-60
2021/11/23 01:04:32;;;;;;;120.90;15.50;;;10.10;91.40;;;;;;5063766;28;20101;-60
2021/11/23 01:06:57;;;;;;;81.80;15.95;;;10.10;91.30;;;;;;5033138;28;20047;-59
2021/11/23 01:09:23;;;;;;;126.38;18.02;;;10.10;91.10;;;;;;5065734;28;20036;-60
2021/11/23 01:11:49;;;;;;;88.55;15.15;;;10.10;91.10;;;;;;5063734;28;20086;-59
2021/11/23 01:14:14;;;;;;;92.13;15.02;;;10.10;91.50;;;;;;5045589;28;20404;-59
2021/11/23 01:16:44;;;;;;;90.68;14.55;;;10.10;91.30;;;;;;5061154;28;20025;-60
2021/11/23 01:19:10;;;;;;;82.47;14.60;;;10.10;91.40;;;;;;5061566;28;20104;-60
2021/11/23 01:21:36;;;;;;;94.57;17.02;;;10.10;91.50;;;;;;5041102;28;20040;-60
2021/11/23 01:24:01;;;;;;;86.00;14.40;;;10.10;91.60;;;;;;5062632;28;20052;-60
2021/11/23 01:26:27;;;;;;;67.57;14.13;;;10.00;91.60;;;;;;5031756;28;20029;-60
2021/11/23 01:28:52;;;;;;;66.97;11.70;;;10.10;91.60;;;;;;5066745;28;20098;-60
2021/11/23 01:31:18;;;;;;;77.68;12.70;;;10.00;91.50;;;;;;5025426;28;20082;-60
2021/11/23 01:33:43;;;;;;;85.20;13.98;;;10.00;91.50;;;;;;5048117;28;20560;-59
2021/11/23 01:36:09;;;;;;;74.38;13.52;;;10.00;91.50;;;;;;5042690;28;20053;-60
2021/11/23 01:38:34;;;;;;;50.63;11.18;;;10.00;91.40;;;;;;5050387;28;20048;-60
2021/11/23 01:41:01;;;;;;;64.35;11.13;;;10.00;91.40;;;;;;5057342;28;20502;-60
2021/11/23 01:43:27;;;;;;;63.13;12.73;;;10.00;91.40;;;;;;5046906;28;20012;-60
2021/11/23 01:45:52;;;;;;;54.83;10.52;;;9.90;91.30;;;;;;5055404;28;20424;-60
2021/11/23 01:48:18;;;;;;;75.15;11.93;;;9.90;91.30;;;;;;5062237;28;20028;-60
2021/11/23 01:50:43;;;;;;;59.00;10.68;;;9.90;91.40;;;;;;5046927;28;20332;-60
2021/11/23 01:53:09;;;;;;;45.80;10.40;;;9.90;91.30;;;;;;5028441;28;20017;-60
2021/11/23 01:55:36;;;;;;;50.63;10.10;;;9.90;91.20;;;;;;5031867;28;20025;-60
2021/11/23 01:58:03;;;;;;;44.88;9.50;;;9.90;91.20;;;;;;5066309;28;20063;-60
2021/11/23 02:00:28;;;;;;;40.90;10.48;;;9.80;91.30;;;;;;5064909;28;20036;-60
2021/11/23 02:02:54;;;;;;;46.60;10.57;;;9.80;91.30;;;;;;5027328;28;20024;-60
2021/11/23 02:05:19;;;;;;;52.78;10.95;;;9.80;91.20;;;;;;5051215;28;20087;-60
2021/11/23 02:07:45;;;;;;;53.95;10.40;;;9.80;91.20;;;;;;5058146;28;20017;-60
2021/11/23 02:10:11;;;;;;;36.05;9.38;;;9.80;91.20;;;;;;5038719;28;20033;-60
2021/11/23 02:12:36;;;;;;;69.80;12.07;;;9.80;91.30;;;;;;5043342;28;20044;-60
2021/11/23 02:15:03;;;;;;;86.45;13.25;;;9.80;91.30;;;;;;5047375;28;20036;-60
2021/11/23 02:17:29;;;;;;;75.80;12.70;;;9.80;91.30;;;;;;5046663;28;20021;-61
2021/11/23 02:19:54;;;;;;;64.68;14.23;;;9.80;91.20;;;;;;5045276;28;20079;-60
2021/11/23 02:22:20;;;;;;;58.78;12.55;;;9.80;91.20;;;;;;5043520;28;20078;-60
2021/11/23 02:24:45;;;;;;;62.72;12.23;;;9.80;91.20;;;;;;5049659;28;20608;-60
2021/11/23 02:27:11;;;;;;;61.63;11.52;;;9.80;91.30;;;;;;5046262;28;20090;-61
2021/11/23 02:29:37;;;;;;;70.82;12.52;;;9.70;91.20;;;;;;5044631;28;20428;-60
2021/11/23 02:32:02;;;;;;;65.20;10.75;;;9.70;91.10;;;;;;5030008;28;20025;-59
2021/11/23 02:34:28;;;;;;;69.25;10.88;;;9.70;91.00;;;;;;5064906;28;20024;-60
2021/11/23 02:36:53;;;;;;;73.25;12.55;;;9.70;91.00;;;;;;5064002;28;20043;-60
2021/11/23 02:39:19;;;;;;;48.05;11.18;;;9.70;91.10;;;;;;5063099;28;20036;-60
2021/11/23 02:41:44;;;;;;;45.42;11.10;;;9.70;91.10;;;;;;5046468;28;20085;-60
2021/11/23 02:44:10;;;;;;;55.53;11.43;;;9.70;91.20;;;;;;5031687;28;20033;-60
2021/11/23 02:46:35;;;;;;;56.38;10.95;;;9.70;91.10;;;;;;5060745;28;20025;-61
2021/11/23 02:49:01;;;;;;;47.80;11.48;;;9.70;91.10;;;;;;5028825;28;20031;-60
2021/11/23 02:51:28;;;;;;;35.63;10.88;;;9.70;91.10;;;;;;5046338;28;20032;-60
2021/11/23 02:53:53;;;;;;;42.25;11.25;;;9.70;91.10;;;;;;5063336;28;20465;-60
2021/11/23 02:56:19;;;;;;;49.60;11.05;;;9.70;91.10;;;;;;5063028;28;20032;-60
2021/11/23 02:58:50;;;;;;;50.97;10.90;;;9.70;91.10;;;;;;5062218;28;20016;-60
2021/11/23 03:01:23;;;;;;;46.17;10.32;;;9.70;91.10;;;;;;5045230;28;20028;-61
2021/11/23 03:03:49;;;;;;;44.70;11.15;;;9.70;91.10;;;;;;5060568;28;20075;-66
2021/11/23 03:06:17;;;;;;;53.60;10.65;;;9.70;91.10;;;;;;5064028;28;20384;-60
2021/11/23 03:08:45;;;;;;;32.35;9.35;;;9.70;91.10;;;;;;5063480;28;20143;-60
2021/11/23 03:11:11;;;;;;;32.15;9.27;;;9.70;91.00;;;;;;5049733;28;20025;-60
2021/11/23 03:13:37;;;;;;;44.08;10.25;;;9.70;91.10;;;;;;5023488;28;20021;-60
2021/11/23 03:16:03;;;;;;;38.35;10.20;;;9.60;91.00;;;;;;5043748;28;20044;-60
2021/11/23 03:18:28;;;;;;;33.05;9.50;;;9.60;91.00;;;;;;5038844;28;20545;-60
2021/11/23 03:20:54;;;;;;;33.10;9.02;;;9.60;91.10;;;;;;5065275;28;20032;-60
2021/11/23 03:23:20;;;;;;;23.63;8.48;;;9.60;91.00;;;;;;5050827;28;20020;-60
2021/11/23 03:25:46;;;;;;;30.00;9.82;;;9.60;91.00;;;;;;5047530;28;20029;-60
2021/11/23 03:28:11;;;;;;;24.77;8.18;;;9.60;91.00;;;;;;5042095;28;20035;-60
2021/11/23 03:30:37;;;;;;;31.88;8.48;;;9.60;91.00;;;;;;5048200;28;20052;-62
2021/11/23 03:33:05;;;;;;;28.88;9.15;;;9.60;90.90;;;;;;5017078;28;20025;-62
2021/11/23 03:35:31;;;;;;;20.55;8.25;;;9.60;90.90;;;;;;5018238;28;20492;-62
2021/11/23 03:37:56;;;;;;;20.60;7.22;;;9.60;90.90;;;;;;5048419;28;20029;-60
2021/11/23 03:40:23;;;;;;;25.08;8.90;;;9.60;90.90;;;;;;5030143;28;20021;-59
2021/11/23 03:42:49;;;;;;;22.77;8.50;;;9.60;90.90;;;;;;5032602;28;20029;-60
2021/11/23 03:45:14;;;;;;;24.60;7.75;;;9.50;90.90;;;;;;5049635;28;20550;-60
2021/11/23 03:47:40;;;;;;;23.00;7.97;;;9.50;90.90;;;;;;5066666;28;20025;-60
2021/11/23 03:50:07;;;;;;;24.88;7.95;;;9.50;90.90;;;;;;5050087;28;20045;-61
2021/11/23 03:52:33;;;;;;;21.45;8.05;;;9.50;90.90;;;;;;5068896;28;20012;-60
2021/11/23 03:54:58;;;;;;;28.60;7.50;;;9.50;90.80;;;;;;5034013;28;20039;-60
2021/11/23 03:57:24;;;;;;;20.38;7.95;;;9.50;90.80;;;;;;5034152;28;20113;-59
2021/11/23 03:59:49;;;;;;;24.25;6.97;;;9.50;90.90;;;;;;5035292;28;20032;-60
2021/11/23 04:02:16;;;;;;;23.15;7.80;;;9.50;90.80;;;;;;5051686;28;20024;-60
2021/11/23 04:04:42;;;;;;;16.40;7.07;;;9.50;90.90;;;;;;5050258;28;20110;-60
2021/11/23 04:07:07;;;;;;;23.15;7.53;;;9.50;90.90;;;;;;5067994;28;20507;-60
2021/11/23 04:09:33;;;;;;;31.02;8.18;;;9.50;90.90;;;;;;5050780;28;20511;-60
2021/11/23 04:11:58;;;;;;;21.40;8.05;;;9.50;90.90;;;;;;5030253;28;20041;-61
2021/11/23 04:14:24;;;;;;;20.63;7.90;;;9.40;90.90;;;;;;5051004;28;20025;-60
2021/11/23 04:16:49;;;;;;;24.65;7.38;;;9.50;90.90;;;;;;5063632;28;20534;-60
2021/11/23 04:19:15;;;;;;;20.08;7.10;;;9.40;90.80;;;;;;5064960;28;20089;-59
2021/11/23 04:21:40;;;;;;;29.60;8.20;;;9.40;90.90;;;;;;5016390;28;20029;-60
2021/11/23 04:24:06;;;;;;;19.20;6.82;;;9.50;90.90;;;;;;5067369;28;20047;-59
2021/11/23 04:26:31;;;;;;;22.20;7.65;;;9.50;90.90;;;;;;5050928;28;20040;-60
2021/11/23 04:28:57;;;;;;;28.00;9.90;;;9.40;90.80;;;;;;5045206;28;20111;-60
2021/11/23 04:31:22;;;;;;;31.95;10.68;;;9.40;90.70;;;;;;5040933;28;20025;-60
2021/11/23 04:33:48;;;;;;;23.92;9.18;;;9.40;90.80;;;;;;5064338;28;20032;-60
2021/11/23 04:36:13;;;;;;;21.58;9.32;;;9.40;90.90;;;;;;5061690;28;20109;-60
2021/11/23 04:38:39;;;;;;;21.38;8.18;;;9.40;90.90;;;;;;5059662;28;20082;-60
2021/11/23 04:41:04;;;;;;;26.00;8.68;;;9.40;90.90;;;;;;5047103;28;20040;-60
2021/11/23 04:43:30;;;;;;;30.95;8.45;;;9.40;90.90;;;;;;5047667;28;20094;-60
2021/11/23 04:45:56;;;;;;;30.95;10.63;;;9.40;90.90;;;;;;5050486;28;20142;-60
2021/11/23 04:48:21;;;;;;;27.27;10.60;;;9.30;91.10;;;;;;5060613;28;20040;-60
2021/11/23 04:50:47;;;;;;;24.98;10.40;;;9.40;90.70;;;;;;5048560;28;20046;-60
2021/11/23 04:53:12;;;;;;;27.02;8.90;;;9.40;90.80;;;;;;5068467;28;20051;-61
2021/11/23 04:55:38;;;;;;;27.70;9.48;;;9.40;90.90;;;;;;5049345;28;20029;-60
2021/11/23 04:58:04;;;;;;;24.52;10.27;;;9.30;90.90;;;;;;5032014;28;20111;-60
2021/11/23 05:00:29;;;;;;;17.85;8.48;;;9.30;90.90;;;;;;5038829;28;20033;-61
2021/11/23 05:02:55;;;;;;;19.92;8.23;;;9.30;90.90;;;;;;5067022;28;20435;-60
2021/11/23 05:05:20;;;;;;;23.77;9.30;;;9.30;90.80;;;;;;5050397;28;20028;-61
2021/11/23 05:07:46;;;;;;;20.00;8.75;;;9.30;90.80;;;;;;5051855;28;20024;-61
2021/11/23 05:10:12;;;;;;;19.38;8.77;;;9.30;90.80;;;;;;5051430;28;20063;-61
2021/11/23 05:12:38;;;;;;;24.13;9.18;;;9.30;90.80;;;;;;5027811;28;20037;-60
2021/11/23 05:15:04;;;;;;;19.80;8.23;;;9.20;90.80;;;;;;5059049;28;20045;-61
2021/11/23 05:17:30;;;;;;;19.05;8.15;;;9.30;90.80;;;;;;5049674;28;20116;-61
2021/11/23 05:19:55;;;;;;;28.98;9.65;;;9.20;90.80;;;;;;5050958;28;20167;-60
2021/11/23 05:22:21;;;;;;;15.85;7.82;;;9.30;90.70;;;;;;5049664;28;20499;-61
2021/11/23 05:24:47;;;;;;;15.52;8.48;;;9.20;90.70;;;;;;5060037;28;20036;-60
2021/11/23 05:27:12;;;;;;;20.67;8.07;;;9.20;90.70;;;;;;5047252;28;20104;-60
2021/11/23 05:29:38;;;;;;;17.67;8.38;;;9.20;90.70;;;;;;5056801;28;20040;-60
2021/11/23 05:32:04;;;;;;;15.80;8.48;;;9.20;90.80;;;;;;5031888;28;20365;-61
2021/11/23 05:34:29;;;;;;;22.20;8.20;;;9.20;90.70;;;;;;5049102;28;20068;-60
2021/11/23 05:36:55;;;;;;;16.75;8.15;;;9.10;90.80;;;;;;5066802;28;20475;-60
2021/11/23 05:39:20;;;;;;;15.45;7.20;;;9.10;90.80;;;;;;5066345;28;20032;-61
2021/11/23 05:41:46;;;;;;;16.73;8.45;;;9.10;90.80;;;;;;5030641;28;20029;-61
2021/11/23 05:44:11;;;;;;;12.07;7.50;;;9.10;90.70;;;;;;5049957;28;20079;-60
2021/11/23 05:46:38;;;;;;;15.60;7.60;;;9.10;90.80;;;;;;5051484;28;20025;-61
2021/11/23 05:49:03;;;;;;;17.15;6.55;;;9.10;90.80;;;;;;5049850;28;20028;-61
2021/11/23 05:51:29;;;;;;;15.10;8.02;;;9.10;90.80;;;;;;5060937;28;20043;-60
2021/11/23 05:53:54;;;;;;;17.05;7.15;;;9.10;90.80;;;;;;5045714;28;20039;-60
2021/11/23 05:56:20;;;;;;;15.95;7.60;;;9.00;90.80;;;;;;5050052;28;20388;-60
2021/11/23 05:58:46;;;;;;;11.95;6.47;;;9.00;90.80;;;;;;5042410;28;20389;-60
2021/11/23 06:01:11;;;;;;;13.18;7.32;;;9.10;90.70;;;;;;5068010;28;20109;-61
2021/11/23 06:03:37;;;;;;;12.77;7.22;;;9.00;90.70;;;;;;5045812;28;20488;-60
2021/11/23 06:06:02;;;;;;;12.43;7.30;;;9.00;90.70;;;;;;5022717;28;20071;-61
2021/11/23 06:08:28;;;;;;;10.93;7.38;;;9.00;90.80;;;;;;5063745;28;20047;-60
2021/11/23 06:10:54;;;;;;;16.50;7.00;;;9.00;90.80;;;;;;5046733;28;20032;-60
2021/11/23 06:13:20;;;;;;;9.55;6.75;;;8.90;90.80;;;;;;5055250;28;20056;-62
2021/11/23 06:15:46;;;;;;;15.30;7.25;;;8.90;90.70;;;;;;5045853;28;20029;-61
2021/11/23 06:18:15;;;;;;;13.80;7.70;;;8.90;90.70;;;;;;5045265;28;20036;-61
2021/11/23 06:20:48;;;;;;;16.58;6.97;;;8.90;90.80;;;;;;5038684;28;20045;-61
2021/11/23 06:23:16;;;;;;;11.63;7.30;;;8.90;90.80;;;;;;5046440;28;20047;-61
2021/11/23 06:25:42;;;;;;;9.50;6.75;;;8.90;90.80;;;;;;5040821;28;20114;-61
2021/11/23 06:28:08;;;;;;;10.05;6.55;;;8.90;90.70;;;;;;5038775;28;20035;-60
2021/11/23 06:30:34;;;;;;;13.05;6.78;;;8.90;90.80;;;;;;5032164;28;20037;-60
2021/11/23 06:32:59;;;;;;;13.77;6.60;;;8.90;90.90;;;;;;5038591;28;20052;-60
2021/11/23 06:35:25;;;;;;;9.00;6.93;;;8.80;90.80;;;;;;5038795;28;20055;-60
2021/11/23 06:37:50;;;;;;;12.38;6.80;;;8.90;90.80;;;;;;5041514;28;20078;-60
2021/11/23 06:40:16;;;;;;;10.52;7.00;;;8.90;90.80;;;;;;5044713;28;20352;-60
2021/11/23 06:42:41;;;;;;;16.80;7.07;;;8.80;90.80;;;;;;5026614;28;20493;-60
2021/11/23 06:45:07;;;;;;;8.57;6.70;;;8.80;90.80;;;;;;5056058;28;20032;-61
2021/11/23 06:47:33;;;;;;;11.27;6.82;;;8.80;90.80;;;;;;5037643;28;20033;-60
2021/11/23 06:49:59;;;;;;;10.18;6.82;;;8.80;90.80;;;;;;5070243;28;20033;-61
2021/11/23 06:52:25;;;;;;;11.95;6.78;;;8.80;90.80;;;;;;5043983;28;20105;-60
2021/11/23 06:54:50;;;;;;;10.35;6.20;;;8.80;90.80;;;;;;5028907;28;20460;-61
2021/11/23 06:57:16;;;;;;;11.10;6.57;;;8.80;90.80;;;;;;5053565;28;20025;-63
2021/11/23 06:59:41;;;;;;;9.27;6.40;;;8.80;90.80;;;;;;5056434;28;20365;-60
2021/11/23 07:02:07;;;;;;;9.38;6.57;;;8.80;90.80;;;;;;5036028;28;20066;-59
2021/11/23 07:04:33;;;;;;;11.13;6.43;;;8.80;90.70;;;;;;5046392;28;20067;-61
2021/11/23 07:06:59;;;;;;;9.38;6.38;;;8.80;90.80;;;;;;5023119;28;20078;-61
2021/11/23 07:09:24;;;;;;;8.52;6.05;;;8.80;90.80;;;;;;5036955;28;20030;-61
2021/11/23 07:11:50;;;;;;;12.52;6.10;;;8.80;90.80;;;;;;5037662;28;20029;-61
2021/11/23 07:14:16;;;;;;;12.23;6.70;;;8.80;90.80;;;;;;5056241;28;20381;-61
2021/11/23 07:16:42;;;;;;;9.95;6.55;;;8.80;90.80;;;;;;5042197;28;20448;-60
2021/11/23 07:19:07;;;;;;;8.45;6.30;;;8.80;90.80;;;;;;5045635;28;20170;-61
2021/11/23 07:21:33;;;;;;;11.40;6.35;;;8.80;90.90;;;;;;5055750;28;20067;-60
2021/11/23 07:23:59;;;;;;;9.10;6.32;;;8.80;91.10;;;;;;5032514;28;20116;-60
2021/11/23 07:26:25;;;;;;;10.68;6.28;;;8.80;91.10;;;;;;5030718;28;20138;-61
2021/11/23 07:28:51;;;;;;;12.25;6.63;;;8.80;90.90;;;;;;5025770;28;20067;-60
2021/11/23 07:31:16;;;;;;;11.75;6.10;;;8.80;90.80;;;;;;5048026;28;20480;-61
2021/11/23 07:33:42;;;;;;;10.70;6.00;;;8.80;90.80;;;;;;5041985;28;20516;-61
2021/11/23 07:36:08;;;;;;;10.18;6.57;;;8.80;90.80;;;;;;5025753;28;20029;-61
2021/11/23 07:38:33;;;;;;;9.85;6.03;;;8.80;90.90;;;;;;5021675;28;20130;-60
2021/11/23 07:40:59;;;;;;;9.90;5.70;;;8.70;90.80;;;;;;5021724;28;20029;-60
2021/11/23 07:43:24;;;;;;;8.18;6.00;;;8.80;90.90;;;;;;5043134;28;20500;-62
2021/11/23 07:45:50;;;;;;;15.85;6.20;;;8.80;90.90;;;;;;5025457;28;20052;-60
2021/11/23 07:48:15;;;;;;;13.70;6.85;;;8.80;90.90;;;;;;5025682;28;20028;-61
2021/11/23 07:50:41;;;;;;;9.32;6.35;;;8.80;90.80;;;;;;5040818;28;20554;-61
2021/11/23 07:53:07;;;;;;;15.05;7.50;;;8.80;90.80;;;;;;5039374;28;20656;-61
2021/11/23 07:55:33;;;;;;;29.92;8.07;;;8.90;90.80;;;;;;5024191;28;20025;-60
2021/11/23 07:57:58;;;;;;;58.42;9.90;;;8.90;90.80;;;;;;5016444;28;20083;-61
2021/11/23 08:00:25;;;;;;;30.60;8.05;;;8.80;90.80;;;;;;5020238;28;20300;-61
2021/11/23 08:02:51;;;;;;;23.27;7.38;;;8.90;90.90;;;;;;5029326;28;20741;-63
2021/11/23 08:05:17;;;;;;;16.98;8.02;;;8.80;90.80;;;;;;5056085;28;20113;-61
2021/11/23 08:07:42;;;;;;;21.27;7.78;;;8.90;90.80;;;;;;5041599;28;20028;-61
2021/11/23 08:10:08;;;;;;;18.95;7.03;;;8.90;90.80;;;;;;5063257;28;20086;-61
2021/11/23 08:12:33;;;;;;;77.20;13.25;;;8.90;90.80;;;;;;5060879;28;20421;-60
2021/11/23 08:14:59;;;;;;;33.42;8.82;;;8.90;90.80;;;;;;5025259;28;20523;-60
2021/11/23 08:17:24;;;;;;;22.80;6.95;;;8.90;90.80;;;;;;5022014;28;20032;-60
2021/11/23 08:19:50;;;;;;;26.33;7.80;;;8.90;90.80;;;;;;5022816;28;20337;-61
2021/11/23 08:22:16;;;;;;;27.48;7.40;;;8.90;90.90;;;;;;5026179;28;20082;-60
2021/11/23 08:24:41;;;;;;;27.70;7.82;;;8.90;90.90;;;;;;5024448;28;20041;-61
2021/11/23 08:27:07;;;;;;;21.65;7.57;;;8.80;90.80;;;;;;5021356;28;20060;-61
2021/11/23 08:29:32;;;;;;;43.40;8.07;;;8.90;90.80;;;;;;5036825;28;20322;-60
2021/11/23 08:31:58;;;;;;;48.60;10.50;;;8.90;90.80;;;;;;5050855;28;20048;-61
2021/11/23 08:34:24;;;;;;;45.88;8.93;;;8.90;90.80;;;;;;5041989;28;20033;-60
2021/11/23 08:36:50;;;;;;;71.60;10.75;;;8.90;90.80;;;;;;5065310;28;20141;-61
2021/11/23 08:39:15;;;;;;;57.67;9.98;;;8.90;90.90;;;;;;5030626;28;20025;-60
2021/11/23 08:41:41;;;;;;;36.47;9.95;;;8.90;90.80;;;;;;5044454;28;20032;-61
2021/11/23 08:44:07;;;;;;;38.03;9.02;;;8.90;90.80;;;;;;5040927;28;20074;-60
2021/11/23 08:46:33;;;;;;;46.63;10.48;;;8.90;90.80;;;;;;5043689;28;20115;-61
2021/11/23 08:48:58;;;;;;;177.50;21.42;;;9.00;90.90;;;;;;5048055;28;20051;-60
2021/11/23 08:51:28;;;;;;;76.28;12.32;;;8.90;90.90;;;;;;5046860;28;20028;-61
2021/11/23 08:53:54;;;;;;;73.38;12.85;;;9.00;90.90;;;;;;5047847;28;20021;-60
2021/11/23 08:56:20;;;;;;;56.53;11.48;;;9.00;90.80;;;;;;5061808;28;20035;-61
2021/11/23 08:58:48;;;;;;;37.90;10.02;;;9.00;90.90;;;;;;5045727;28;20032;-61
2021/11/23 09:01:14;;;;;;;49.80;10.73;;;9.00;90.80;;;;;;5043680;28;20066;-61
2021/11/23 09:03:41;;;;;;;38.90;9.60;;;9.00;90.90;;;;;;5027820;28;20111;-62
2021/11/23 09:06:06;;;;;;;40.35;9.15;;;9.00;90.80;;;;;;5044182;28;20043;-61
2021/11/23 09:08:35;;;;;;;65.95;11.73;;;9.00;90.70;;;;;;5047205;28;20024;-61
2021/11/23 09:11:01;;;;;;;55.30;9.23;;;9.00;90.70;;;;;;5064051;28;20029;-61
2021/11/23 09:13:27;;;;;;;41.78;10.45;;;9.00;90.90;;;;;;5011220;28;20040;-61
2021/11/23 09:15:52;;;;;;;42.38;10.15;;;9.00;90.60;;;;;;5044680;28;20024;-61
2021/11/23 09:18:18;;;;;;;40.15;9.30;;;9.00;90.60;;;;;;5044051;28;20063;-60
2021/11/23 09:20:44;;;;;;;95.93;12.90;;;9.00;90.70;;;;;;5042516;28;20619;-60
2021/11/23 09:23:11;;;;;;;52.55;10.90;;;9.10;90.70;;;;;;5046105;28;20029;-61
2021/11/23 09:25:37;;;;;;;42.83;10.20;;;9.00;90.70;;;;;;5029304;28;20057;-61
2021/11/23 09:28:03;;;;;;;38.88;9.57;;;9.00;90.70;;;;;;5029678;28;20055;-60
2021/11/23 09:30:30;;;;;;;58.85;12.27;;;9.00;90.70;;;;;;5013222;28;20460;-60
2021/11/23 09:32:59;;;;;;;66.88;11.20;;;9.10;90.70;;;;;;5009880;28;20025;-61
2021/11/23 09:35:25;;;;;;;36.75;9.65;;;9.00;90.70;;;;;;5027393;28;20072;-60
2021/11/23 09:37:50;;;;;;;44.33;9.13;;;9.10;90.80;;;;;;5025257;28;20060;-61
2021/11/23 09:40:18;;;;;;;48.42;9.15;;;9.00;90.70;;;;;;5025692;28;20123;-61
2021/11/23 09:42:44;;;;;;;52.35;10.02;;;9.10;90.70;;;;;;5018620;28;20982;-61
2021/11/23 09:45:09;;;;;;;32.05;8.77;;;9.10;90.70;;;;;;5022501;28;20038;-60
2021/11/23 09:47:35;;;;;;;32.53;9.52;;;9.20;90.70;;;;;;5040686;28;20062;-61
2021/11/23 09:50:01;;;;;;;44.05;9.35;;;9.10;90.70;;;;;;5043880;28;20159;-60
2021/11/23 09:52:28;;;;;;;49.75;11.23;;;9.00;90.70;;;;;;5011477;28;20423;-61
2021/11/23 09:54:53;;;;;;;46.03;11.18;;;9.10;90.70;;;;;;5009105;28;20025;-61
2021/11/23 09:57:19;;;;;;;55.80;10.90;;;9.10;90.70;;;;;;5024715;28;20024;-61
2021/11/23 09:59:44;;;;;;;55.25;9.73;;;9.10;90.70;;;;;;5023217;28;20370;-61
2021/11/23 10:02:10;;;;;;;74.00;10.95;;;9.10;90.70;;;;;;5038500;28;20044;-61
2021/11/23 10:04:37;;;;;;;49.35;11.20;;;9.10;90.70;;;;;;5039040;28;20059;-61
2021/11/23 10:07:04;;;;;;;40.75;10.80;;;9.10;90.70;;;;;;5045157;28;20020;-60
2021/11/23 10:09:41;;;;;;;53.95;11.00;;;9.10;90.70;;;;;;5026801;28;20730;-61
2021/11/23 10:12:14;;;;;;;59.83;10.63;;;9.10;90.70;;;;;;5044978;28;20024;-59
2021/11/23 10:15:01;;;;;;;59.42;10.50;;;9.10;90.70;;;;;;5028201;28;20467;-60
2021/11/23 10:17:26;;;;;;;42.95;10.30;;;9.10;90.70;;;;;;5021124;28;20043;-60
2021/11/23 10:19:52;;;;;;;47.70;11.38;;;9.10;90.70;;;;;;5029480;28;20029;-60
2021/11/23 10:22:47;;;;;;;58.22;11.45;;;9.10;90.70;;;;;;5045705;28;20044;-60
2021/11/23 10:25:13;;;;;;;60.55;11.48;;;9.10;90.70;;;;;;5054884;28;20114;-60
2021/11/23 10:27:41;;;;;;;45.03;11.45;;;9.10;90.70;;;;;;5029760;28;20132;-60
2021/11/23 10:30:08;;;;;;;54.00;10.43;;;9.10;90.70;;;;;;5060788;28;20052;-61
2021/11/23 10:32:46;;;;;;;49.33;10.82;;;9.10;90.70;;;;;;5061684;28;20037;-60
2021/11/23 10:35:18;;;;;;;62.58;11.40;;;9.10;90.70;;;;;;5042468;28;20028;-60
2021/11/23 10:37:44;;;;;;;62.72;12.23;;;9.10;90.80;;;;;;5026367;28;20052;-60
2021/11/23 10:40:23;;;;;;;74.85;12.93;;;9.20;90.80;;;;;;5026407;28;20463;-60
2021/11/23 10:42:54;;;;;;;62.45;11.93;;;9.20;90.70;;;;;;5063574;28;20033;-60
2021/11/23 10:45:19;;;;;;;81.68;14.18;;;9.20;90.70;;;;;;5060696;28;20472;-60
2021/11/23 10:47:46;;;;;;;59.90;11.32;;;9.20;90.80;;;;;;5024130;28;20078;-60
2021/11/23 10:50:13;;;;;;;68.40;11.57;;;9.20;90.70;;;;;;5042796;28;20028;-62
2021/11/23 10:52:45;;;;;;;101.07;15.90;;;9.20;90.60;;;;;;5047870;28;20047;-62
2021/11/23 10:55:25;;;;;;;79.05;11.60;;;9.20;90.50;;;;;;5048689;28;20462;-62
2021/11/23 10:57:52;;;;;;;95.53;15.63;;;9.20;90.50;;;;;;5064723;28;20024;-62
2021/11/23 11:00:17;;;;;;;80.38;13.32;;;9.20;90.40;;;;;;5045663;28;20029;-59
2021/11/23 11:02:43;;;;;;;57.25;10.82;;;9.20;90.50;;;;;;5040239;28;20043;-62
2021/11/23 11:05:10;;;;;;;68.70;13.18;;;9.20;90.50;;;;;;5045440;28;20051;-60
2021/11/23 11:07:37;;;;;;;327.35;33.83;;;9.20;90.50;;;;;;5027888;28;20036;-60
2021/11/23 11:10:03;;;;;;;117.80;17.75;;;9.20;90.40;;;;;;5060639;28;20174;-62
2021/11/23 11:12:29;;;;;;;86.53;13.52;;;9.20;90.60;;;;;;5064207;28;20108;-60
2021/11/23 11:14:54;;;;;;;70.20;13.90;;;9.20;90.60;;;;;;5064031;28;20021;-60
2021/11/23 11:17:23;;;;;;;64.97;12.40;;;9.20;90.50;;;;;;5047015;28;20107;-61
2021/11/23 11:19:50;;;;;;;72.47;11.68;;;9.20;90.50;;;;;;5045212;28;20017;-61
2021/11/23 11:22:19;;;;;;;67.15;12.88;;;9.20;90.50;;;;;;5042065;28;20051;-60
2021/11/23 11:27:37;;;;;;;88.70;13.93;;;9.20;90.50;;;;;;5046427;28;20037;-61
2021/11/23 11:30:20;;;;;;;78.00;13.82;;;9.30;90.50;;;;;;5029474;28;20461;-60
2021/11/23 11:32:46;;;;;;;63.15;14.73;;;9.30;90.50;;;;;;5057211;28;20024;-62
2021/11/23 11:35:26;;;;;;;61.75;13.02;;;9.30;90.50;;;;;;5029960;28;20024;-60
2021/11/23 11:38:03;;;;;;;68.70;11.63;;;9.30;90.60;;;;;;5062529;28;20028;-60
2021/11/23 11:40:33;;;;;;;75.65;13.45;;;9.20;90.70;;;;;;5058555;28;20044;-60
2021/11/23 11:43:02;;;;;;;54.63;12.23;;;9.20;90.70;;;;;;5026274;28;20438;-65
2021/11/23 11:45:47;;;;;;;87.88;12.73;;;9.20;90.70;;;;;;5059663;28;20055;-60
2021/11/23 11:48:31;;;;;;;71.05;13.52;;;9.20;90.80;;;;;;5044438;28;20039;-60
2021/11/23 11:51:00;;;;;;;61.13;13.25;;;9.30;90.80;;;;;;5060677;28;20040;-60
2021/11/23 11:53:30;;;;;;;99.88;14.52;;;9.30;90.70;;;;;;5043753;28;20499;-62
2021/11/23 11:55:55;;;;;;;91.45;13.27;;;9.30;90.80;;;;;;5029280;28;20075;-61
2021/11/23 11:58:52;;;;;;;75.78;14.80;;;9.30;90.90;;;;;;5058819;28;20041;-60
2021/11/23 12:01:34;;;;;;;175.75;19.58;;;9.40;90.80;;;;;;5060161;28;20024;-61
2021/11/23 12:04:14;;;;;;;122.10;16.88;;;9.30;90.90;;;;;;5027691;28;20049;-61
2021/11/23 12:06:55;;;;;;;97.75;15.50;;;9.30;90.90;;;;;;5041964;28;20375;-60
2021/11/23 12:09:28;;;;;;;89.63;13.68;;;9.30;90.90;;;;;;5043963;28;20040;-61
2021/11/23 12:12:09;;;;;;;77.10;14.82;;;9.30;90.80;;;;;;5045088;28;20012;-62
2021/11/23 12:15:07;;;;;;;88.47;16.67;;;9.30;90.80;;;;;;5064122;28;20160;-61
2021/11/23 12:18:06;;;;;;;228.15;27.55;;;9.30;90.80;;;;;;5060081;28;20264;-60
2021/11/23 12:20:35;;;;;;;71.53;14.38;;;9.30;90.90;;;;;;5048304;28;20039;-60
2021/11/23 12:23:22;;;;;;;74.63;14.48;;;9.40;91.00;;;;;;5046439;28;20124;-61
2021/11/23 12:25:56;;;;;;;153.30;19.42;;;9.30;90.90;;;;;;5046158;28;20094;-60
2021/11/23 12:28:22;;;;;;;145.10;19.50;;;9.30;90.90;;;;;;5045836;28;20301;-60
2021/11/23 12:30:48;;;;;;;107.10;18.02;;;9.40;90.80;;;;;;5026400;28;20054;-61
2021/11/23 12:33:13;;;;;;;131.85;17.75;;;9.40;90.80;;;;;;5045134;28;20048;-60
2021/11/23 12:35:39;;;;;;;98.40;15.65;;;9.40;90.80;;;;;;5046084;28;20047;-60
2021/11/23 12:38:04;;;;;;;83.38;16.00;;;9.40;90.70;;;;;;5044053;28;20089;-60
2021/11/23 12:40:31;;;;;;;83.60;15.77;;;9.40;90.70;;;;;;5045109;28;20103;-61
2021/11/23 12:42:59;;;;;;;87.50;14.55;;;9.40;90.70;;;;;;5042820;28;20040;-60